Time;durP1;ratioP1;P1;durP2;ratioP2;P2;SDS_P1;SDS_P2;PMS_P1;PMS_P2;Temp;Humidity;BMP_temperature;BMP_pressure;BME280_temperature;BME280_humidity;BME280_pressure;Samples;Min_cycle;Max_cycle;Signal;HPM_P1;HPM_P2
2023/11/12 00:00:45;;;;;;;3.50;0.60;;;;;;;-147.86;100.00;50394.66;105553;1257;61036;-45
2023/11/12 00:03:13;;;;;;;0.80;0.60;;;;;;;-147.86;100.00;50403.68;105553;1262;60411;-44
2023/11/12 00:05:41;;;;;;;0.50;0.40;;;;;;;-147.86;100.00;50423.69;105567;1257;72582;-43
2023/11/12 00:08:08;;;;;;;4.50;1.00;;;;;;;-147.86;100.00;50428.40;105632;1257;65318;-43
2023/11/12 00:10:36;;;;;;;1.50;0.40;;;;;;;-147.86;100.00;50448.80;105605;1257;71437;-46
2023/11/12 00:13:04;;;;;;;4.70;0.40;;;;;;;-147.86;100.00;50476.65;105585;1257;60474;-45
2023/11/12 00:15:32;;;;;;;0.40;0.40;;;;;;;-147.86;100.00;50470.37;105572;1262;60348;-45
2023/11/12 00:18:00;;;;;;;0.40;0.40;;;;;;;-147.86;100.00;50486.85;105584;1257;72541;-44
2023/11/12 00:20:28;;;;;;;4.70;0.40;;;;;;;-147.86;100.00;50487.63;105604;1257;63132;-44
2023/11/12 00:22:56;;;;;;;1.00;0.50;;;;;;;-147.86;100.00;50520.59;105570;1260;72675;-45
2023/11/12 00:25:24;;;;;;;0.60;0.40;;;;;;;-147.86;100.00;50533.93;105586;1260;60543;-44
2023/11/12 00:27:54;;;;;;;3.10;0.60;;;;;;;-147.86;100.00;50549.23;105624;1261;60332;-47
2023/11/12 00:30:22;;;;;;;1.40;0.50;;;;;;;-147.86;100.00;50541.38;105563;1257;72558;-44
2023/11/12 00:32:49;;;;;;;0.50;0.50;;;;;;;-147.86;100.00;50562.96;105620;1257;64025;-43
2023/11/12 00:35:17;;;;;;;1.00;0.60;;;;;;;-147.86;100.00;50579.82;105565;1261;71358;-44
2023/11/12 00:37:46;;;;;;;2.20;0.80;;;;;;;-147.86;100.00;50590.81;105513;1261;60489;-45
2023/11/12 00:40:14;;;;;;;0.50;0.50;;;;;;;-147.86;100.00;50598.26;105572;1261;60347;-46
2023/11/12 00:42:42;;;;;;;1.10;0.80;;;;;;;-147.86;100.00;50631.61;105544;1257;72547;-44
2023/11/12 00:45:09;;;;;;;0.90;0.50;;;;;;;-147.86;100.00;50665.74;105550;1262;65203;-46
2023/11/12 00:47:37;;;;;;;1.70;0.80;;;;;;;-147.86;100.00;50663.77;105565;1263;71435;-45
2023/11/12 00:50:06;;;;;;;6.10;1.00;;;;;;;-147.86;100.00;50660.25;105567;1263;60558;-44
2023/11/12 00:52:34;;;;;;;1.10;0.90;;;;;;;-147.86;100.00;50668.88;105605;1258;60415;-44
2023/11/12 00:55:02;;;;;;;1.30;1.10;;;;;;;-147.86;100.00;50674.37;105606;1257;72703;-44
2023/11/12 00:57:30;;;;;;;0.80;0.80;;;;;;;-147.86;100.00;50702.62;105501;1262;63944;-43
2023/11/12 00:59:58;;;;;;;1.70;0.80;;;;;;;-147.86;100.00;50709.68;105452;1262;72674;-45
2023/11/12 01:02:28;;;;;;;3.00;0.70;;;;;;;-147.86;100.00;50732.44;105510;1260;62078;-46
2023/11/12 01:04:56;;;;;;;1.50;0.80;;;;;;;-147.86;100.00;50730.47;105603;1261;60593;-46
2023/11/12 01:07:24;;;;;;;1.10;1.00;;;;;;;-147.86;100.00;50724.98;105440;1256;72569;-45
2023/11/12 01:09:52;;;;;;;1.70;0.80;;;;;;;-147.86;100.00;50747.34;105568;1257;64475;-47
2023/11/12 01:12:21;;;;;;;1.10;0.70;;;;;;;-147.86;100.00;50728.91;105618;1263;71557;-45
2023/11/12 01:14:49;;;;;;;1.90;0.70;;;;;;;-147.86;100.00;50760.68;105474;1262;60469;-45
2023/11/12 01:17:17;;;;;;;0.60;0.60;;;;;;;-147.86;100.00;50729.30;105579;1256;60456;-44
2023/11/12 01:19:46;;;;;;;1.00;0.80;;;;;;;-147.86;100.00;50761.46;105586;1257;72573;-45
2023/11/12 01:22:13;;;;;;;0.90;0.90;;;;;;;-147.86;100.00;50745.77;105548;1263;63947;-44
2023/11/12 01:24:41;;;;;;;0.70;0.70;;;;;;;-147.86;100.00;50762.64;105376;1263;71352;-44
2023/11/12 01:27:09;;;;;;;1.00;0.90;;;;;;;-147.86;100.00;50755.59;105572;1257;60540;-45
2023/11/12 01:29:37;;;;;;;1.90;1.00;;;;;;;-147.86;100.00;50773.24;105457;1257;60597;-44
2023/11/12 01:32:06;;;;;;;1.80;0.70;;;;;;;-147.86;100.00;50762.64;105572;1257;73835;-45
2023/11/12 01:34:34;;;;;;;1.60;1.00;;;;;;;-147.86;100.00;50776.77;105470;1257;65223;-44
2023/11/12 01:37:02;;;;;;;1.40;0.90;;;;;;;-147.86;100.00;50777.55;105563;1257;71835;-44
2023/11/12 01:39:30;;;;;;;1.10;1.10;;;;;;;-147.86;100.00;50772.06;105539;1261;60641;-46
2023/11/12 01:41:59;;;;;;;1.60;1.10;;;;;;;-147.86;100.00;50762.64;105601;1257;60338;-44
2023/11/12 01:44:28;;;;;;;1.30;1.10;;;;;;;-147.86;100.00;50765.78;105597;1257;73643;-43
2023/11/12 01:46:56;;;;;;;1.40;1.30;;;;;;;-147.86;100.00;50763.82;105495;1258;65258;-45
2023/11/12 01:49:24;;;;;;;1.40;1.10;;;;;;;-147.86;100.00;50775.59;105564;1257;72641;-43
2023/11/12 01:51:51;;;;;;;1.50;1.10;;;;;;;-147.86;100.00;50779.91;105510;1257;60694;-43
2023/11/12 01:54:19;;;;;;;1.40;1.30;;;;;;;-147.86;100.00;50768.53;105437;1263;60432;-45
2023/11/12 01:56:47;;;;;;;2.40;1.10;;;;;;;-147.86;100.00;50778.73;105450;1257;72563;-44
2023/11/12 01:59:15;;;;;;;2.90;1.30;;;;;;;-147.86;100.00;50782.26;105512;1258;65245;-44
2023/11/12 02:01:43;;;;;;;1.30;1.20;;;;;;;-147.86;100.00;50775.20;105587;1263;72622;-46
2023/11/12 02:04:11;;;;;;;1.50;1.40;;;;;;;-147.86;100.00;50783.05;105294;1257;60658;-43
2023/11/12 02:06:39;;;;;;;2.70;1.00;;;;;;;-147.86;100.00;50787.36;105455;1262;60358;-44
2023/11/12 02:09:07;;;;;;;4.40;1.60;;;;;;;-147.86;100.00;50788.14;105437;1262;73806;-45
2023/11/12 02:11:38;;;;;;;2.70;1.70;;;;;;;-147.86;100.00;50787.76;105647;1263;63957;-43
2023/11/12 02:14:07;;;;;;;2.10;1.90;;;;;;;-147.86;100.00;50791.68;105568;1263;71421;-44
2023/11/12 02:16:35;;;;;;;1.80;1.70;;;;;;;-147.86;100.00;50798.74;105634;1257;60886;-46
2023/11/12 02:19:03;;;;;;;1.80;1.70;;;;;;;-147.86;100.00;50803.84;105637;1257;60568;-44
2023/11/12 02:21:32;;;;;;;2.10;1.90;;;;;;;-147.86;100.00;50787.36;105486;1257;71594;-46
2023/11/12 02:24:00;;;;;;;2.10;1.80;;;;;;;-147.86;100.00;50799.92;105618;1257;65172;-43
2023/11/12 02:26:29;;;;;;;2.10;1.80;;;;;;;-147.86;100.00;50818.75;105573;1257;70141;-43
2023/11/12 02:28:58;;;;;;;2.40;2.20;;;;;;;-147.86;100.00;50808.93;105601;1258;60632;-47
2023/11/12 02:31:26;;;;;;;5.30;2.10;;;;;;;-147.86;100.00;50828.55;105643;1263;60434;-47
2023/11/12 02:33:54;;;;;;;3.40;2.10;;;;;;;-147.86;100.00;50824.63;105599;1258;72561;-45
2023/11/12 02:36:25;;;;;;;5.20;2.50;;;;;;;-147.86;100.00;50849.35;105530;1262;65133;-46
2023/11/12 02:38:53;;;;;;;3.00;2.30;;;;;;;-147.86;100.00;50856.80;105524;1261;72651;-45
2023/11/12 02:41:23;;;;;;;3.00;2.10;;;;;;;-147.86;100.00;50840.32;105606;1257;60687;-44
2023/11/12 02:43:52;;;;;;;2.80;2.50;;;;;;;-147.86;100.00;50849.35;105621;1263;60341;-46
2023/11/12 02:46:20;;;;;;;3.70;2.60;;;;;;;-147.86;100.00;50851.31;105532;1258;73855;-47
2023/11/12 02:49:08;;;;;;;6.20;2.80;;;;;;;-147.86;100.00;50874.07;105489;1261;63939;-45
2023/11/12 02:51:36;;;;;;;5.20;2.60;;;;;;;-147.86;100.00;50890.54;105228;1261;71911;-45
2023/11/12 02:54:04;;;;;;;2.70;2.50;;;;;;;-147.86;100.00;50876.42;105600;1262;60450;-45
2023/11/12 02:56:34;;;;;;;4.70;2.70;;;;;;;-147.86;100.00;50894.47;105258;1257;60492;-46
2023/11/12 02:59:03;;;;;;;4.40;2.90;;;;;;;-147.86;100.00;50903.89;105513;1257;72855;-43
2023/11/12 03:01:32;;;;;;;4.70;2.80;;;;;;;-147.86;100.00;50908.20;105476;1257;64010;-46
2023/11/12 03:04:00;;;;;;;2.90;2.60;;;;;;;-147.86;100.00;50923.11;105516;1258;72649;-47
2023/11/12 03:06:28;;;;;;;4.90;3.50;;;;;;;-147.86;100.00;50934.88;105512;1259;60546;-45
2023/11/12 03:08:56;;;;;;;6.20;3.10;;;;;;;-147.86;100.00;50930.57;105558;1262;60482;-44
2023/11/12 03:11:26;;;;;;;6.70;3.00;;;;;;;-147.86;100.00;50936.84;105521;1257;72733;-45
2023/11/12 03:13:53;;;;;;;4.50;3.00;;;;;;;-147.86;100.00;50957.64;105497;1257;65178;-47
2023/11/12 03:16:23;;;;;;;4.10;3.40;;;;;;;-147.86;100.00;50931.74;105485;1260;72625;-47
2023/11/12 03:18:51;;;;;;;3.50;3.20;;;;;;;-147.86;100.00;50949.40;105462;1263;60479;-46
2023/11/12 03:21:19;;;;;;;6.30;3.70;;;;;;;-147.86;100.00;50970.20;105498;1263;60344;-46
2023/11/12 03:23:47;;;;;;;5.30;3.30;;;;;;;-147.86;100.00;50974.12;105472;1256;72581;-43
2023/11/12 03:26:15;;;;;;;7.20;3.30;;;;;;;-147.86;100.00;50975.29;105479;1257;64212;-44
2023/11/12 03:28:42;;;;;;;7.20;3.40;;;;;;;-147.86;100.00;50985.49;105497;1262;71329;-47
2023/11/12 03:31:10;;;;;;;3.40;3.10;;;;;;;-147.86;100.00;50973.33;105503;1258;60693;-44
2023/11/12 03:33:38;;;;;;;4.10;3.10;;;;;;;-147.86;100.00;50998.05;105566;1257;60342;-44
2023/11/12 03:36:06;;;;;;;3.40;3.10;;;;;;;-147.86;100.00;50988.23;105465;1258;73797;-47
2023/11/12 03:38:34;;;;;;;3.80;3.20;;;;;;;-147.86;100.00;51024.73;105711;1260;65142;-47
2023/11/12 03:41:02;;;;;;;6.10;3.40;;;;;;;-147.86;100.00;51015.31;105684;1257;72634;-44
2023/11/12 03:43:30;;;;;;;5.80;3.10;;;;;;;-147.86;100.00;51025.12;105719;1260;60683;-46
2023/11/12 03:45:57;;;;;;;4.10;3.70;;;;;;;-147.86;100.00;51036.89;105700;1259;60424;-46
2023/11/12 03:48:25;;;;;;;5.10;3.20;;;;;;;-147.86;100.00;51039.64;105673;1253;72552;-45
2023/11/12 03:50:52;;;;;;;4.50;3.40;;;;;;;-147.86;100.00;51038.46;105683;1259;64091;-46
2023/11/12 03:53:20;;;;;;;5.60;3.80;;;;;;;-147.86;100.00;51039.24;105616;1259;71398;-46
2023/11/12 03:55:49;;;;;;;3.60;3.30;;;;;;;-147.86;100.00;51036.50;105661;1255;60751;-45
2023/11/12 03:58:17;;;;;;;4.00;3.70;;;;;;;-147.86;100.00;51060.04;105768;1259;60389;-45
2023/11/12 04:00:44;;;;;;;6.50;4.20;;;;;;;-147.86;100.00;51056.51;105681;1254;73068;-47
2023/11/12 04:03:14;;;;;;;5.20;3.70;;;;;;;-147.86;100.00;51054.55;105695;1253;63375;-44
2023/11/12 04:05:42;;;;;;;4.00;3.40;;;;;;;-147.86;100.00;51049.05;105644;1254;72644;-47
2023/11/12 04:08:10;;;;;;;3.50;3.20;;;;;;;-147.86;100.00;51038.07;105633;1257;60538;-46
2023/11/12 04:10:38;;;;;;;7.90;3.40;;;;;;;-147.86;100.00;51053.37;105637;1253;60448;-43
2023/11/12 04:13:06;;;;;;;4.30;3.40;;;;;;;-147.86;100.00;51062.79;105652;1254;72658;-46
2023/11/12 04:15:33;;;;;;;7.90;3.50;;;;;;;-147.86;100.00;51075.73;105707;1261;64057;-46
2023/11/12 04:38:38;;;;;;;8.50;3.40;;;;;;;-147.86;100.00;50986.34;102723;1293;600399;-44
2023/11/12 04:41:11;;;;;;;6.20;3.30;;;;;;;-147.86;100.00;51244.06;104935;1267;61637;-46
2023/11/12 04:43:42;;;;;;;7.20;4.00;;;;;;;-147.86;100.00;51202.07;104906;1270;59338;-44
2023/11/12 04:46:11;;;;;;;7.30;3.70;;;;;;;-147.86;100.00;51177.36;104869;1270;70202;-46
2023/11/12 04:48:39;;;;;;;5.90;3.90;;;;;;;-147.86;100.00;51182.45;104874;1265;64071;-43
2023/11/12 04:51:08;;;;;;;5.50;4.00;;;;;;;-147.86;100.00;51153.42;104677;1270;275199;-44
2023/11/12 04:53:37;;;;;;;5.40;3.60;;;;;;;-147.86;100.00;51160.09;105160;1269;60466;-43
2023/11/12 04:56:09;;;;;;;3.80;3.50;;;;;;;-147.86;100.00;51142.04;105204;1268;60013;-46
2023/11/12 04:58:38;;;;;;;4.00;3.60;;;;;;;-147.86;100.00;51120.85;105152;1267;71890;-44
2023/11/12 05:01:06;;;;;;;12.10;4.00;;;;;;;-147.86;100.00;51111.05;105624;1257;62952;-46
2023/11/12 05:03:34;;;;;;;3.90;3.50;;;;;;;-147.86;100.00;51114.97;105603;1258;72600;-47
2023/11/12 05:06:03;;;;;;;6.60;3.60;;;;;;;-147.86;100.00;51082.40;105543;1258;60384;-46
2023/11/12 05:48:07;;;;;;;3.50;3.10;;;;;;;-147.86;100.00;50599.50;103522;1283;601452;-46
2023/11/12 05:50:36;;;;;;;5.10;3.20;;;;;;;-147.86;100.00;50952.14;105579;1258;60357;-47
2023/11/12 05:53:04;;;;;;;4.60;3.30;;;;;;;-147.86;100.00;50916.83;105603;1257;59190;-46
2023/11/12 05:55:31;;;;;;;5.90;3.40;;;;;;;-147.86;100.00;50912.12;105557;1257;70157;-45
2023/11/12 05:57:59;;;;;;;3.40;3.10;;;;;;;-147.86;100.00;50904.28;105534;1257;63690;-51
2023/11/12 06:00:26;;;;;;;3.40;3.10;;;;;;;-147.86;100.00;50900.36;105315;1259;71499;-46
2023/11/12 06:02:55;;;;;;;3.40;3.00;;;;;;;-147.86;100.00;50869.75;105291;1257;251234;-47
2023/11/12 06:05:23;;;;;;;3.10;2.90;;;;;;;-147.86;100.00;50848.17;105522;1260;59271;-46
2023/11/12 06:07:51;;;;;;;3.40;2.20;;;;;;;-147.86;100.00;50840.32;105477;1260;71011;-46
2023/11/12 06:10:18;;;;;;;2.20;2.10;;;;;;;-147.86;100.00;50843.86;105657;1260;63981;-47
2023/11/12 06:12:46;;;;;;;2.60;2.40;;;;;;;-147.86;100.00;50825.41;105635;1258;72671;-47
2023/11/12 06:15:14;;;;;;;5.00;2.00;;;;;;;-147.86;100.00;50822.67;105626;1259;61113;-49
2023/11/12 06:17:41;;;;;;;2.80;2.60;;;;;;;-147.86;100.00;50832.87;105649;1257;60043;-51
2023/11/12 06:20:11;;;;;;;2.70;2.50;;;;;;;-147.86;100.00;50877.60;105595;1255;71417;-47
2023/11/12 06:22:39;;;;;;;3.60;3.10;;;;;;;-147.86;100.00;50888.59;105649;1260;63926;-45
2023/11/12 06:25:11;;;;;;;4.80;2.70;;;;;;;-147.86;100.00;50912.52;105593;1260;71382;-45
2023/11/12 06:27:39;;;;;;;3.50;2.70;;;;;;;-147.86;100.00;50918.79;105620;1257;61070;-46
2023/11/12 06:30:08;;;;;;;4.10;2.50;;;;;;;-147.86;100.00;50932.92;105636;1260;59618;-44
2023/11/12 06:32:40;;;;;;;2.40;2.30;;;;;;;-147.86;100.00;50925.86;105564;1258;72086;-46
2023/11/12 06:35:08;;;;;;;3.10;2.40;;;;;;;-147.86;100.00;50907.80;105641;1258;64023;-46
2023/11/12 06:37:35;;;;;;;5.90;2.00;;;;;;;-147.86;100.00;50903.88;105621;1260;71415;-47
2023/11/12 06:40:06;;;;;;;2.70;1.90;;;;;;;-147.86;100.00;50883.48;105603;1258;60446;-46
2023/11/12 06:42:34;;;;;;;2.20;1.90;;;;;;;-147.86;100.00;50866.22;105648;1255;60023;-43
2023/11/12 06:45:02;;;;;;;4.50;2.50;;;;;;;-147.86;100.00;50816.79;105620;1256;71745;-45
2023/11/12 06:47:30;;;;;;;3.60;1.70;;;;;;;-147.86;100.00;50806.98;105663;1256;64651;-47
2023/11/12 06:49:57;;;;;;;1.90;1.60;;;;;;;-147.86;100.00;50746.17;105628;1257;71390;-46
2023/11/12 06:52:25;;;;;;;1.60;1.50;;;;;;;-147.86;100.00;50613.17;105594;1258;60592;-46
2023/11/12 06:54:53;;;;;;;3.10;1.50;;;;;;;-147.86;100.00;50480.96;105256;1257;59647;-46
2023/11/12 06:57:21;;;;;;;2.00;1.80;;;;;;;-147.86;100.00;50251.87;105400;1260;72078;-46
2023/11/12 06:59:48;;;;;;;6.30;1.90;;;;;;;-147.86;100.00;50025.93;105640;1260;64006;-48
2023/11/12 07:02:17;;;;;;;2.70;1.70;;;;;;;-147.86;100.00;49836.07;105584;1257;70713;-49
2023/11/12 07:04:44;;;;;;;3.20;1.60;;;;;;;-147.86;100.00;49679.18;105649;1256;59789;-46
2023/11/12 07:07:13;;;;;;;2.40;2.10;;;;;;;-147.86;100.00;49627.80;105606;1260;59820;-47
2023/11/12 07:09:45;;;;;;;7.30;2.30;;;;;;;-147.86;100.00;49570.54;105639;1257;72999;-45
2023/11/12 07:12:14;;;;;;;2.30;2.10;;;;;;;-147.86;100.00;49542.70;105645;1258;64094;-46
2023/11/12 07:14:43;;;;;;;5.50;2.10;;;;;;;-147.86;100.00;49497.20;105619;1263;71432;-44
2023/11/12 07:17:10;;;;;;;2.10;1.90;;;;;;;-147.86;100.00;49477.20;105609;1256;60049;-45
2023/11/12 07:19:41;;;;;;;3.50;1.90;;;;;;;-147.86;100.00;49406.60;105615;1258;60109;-49
2023/11/12 07:22:09;;;;;;;6.00;2.30;;;;;;;-147.86;100.00;49401.50;105939;1251;71838;-44
2023/11/12 07:24:37;;;;;;;3.10;1.70;;;;;;;-147.86;100.00;49398.76;105898;1251;63996;-43
2023/11/12 07:27:05;;;;;;;2.90;1.80;;;;;;;-147.86;100.00;49412.48;105932;1256;71158;-44
2023/11/12 07:29:33;;;;;;;4.60;1.80;;;;;;;-147.86;100.00;49443.07;105898;1252;60519;-45
2023/11/12 07:32:01;;;;;;;6.60;2.20;;;;;;;-147.86;100.00;49312.87;105931;1256;59532;-43
2023/11/12 07:34:29;;;;;;;5.10;1.70;;;;;;;-147.86;100.00;49104.63;105886;1251;70849;-46
2023/11/12 07:36:57;;;;;;;2.60;1.90;;;;;;;-147.86;100.00;48992.47;105978;1251;63670;-47
2023/11/12 07:39:24;;;;;;;5.30;1.80;;;;;;;-147.86;100.00;48933.64;105980;1251;71385;-46
2023/11/12 07:41:53;;;;;;;4.10;1.70;;;;;;;-147.86;100.00;48915.22;105919;1255;60366;-46
2023/11/12 07:44:23;;;;;;;6.50;2.10;;;;;;;-147.86;100.00;48907.38;105894;1256;59739;-44
2023/11/12 07:46:50;;;;;;;7.00;1.90;;;;;;;-147.86;100.00;48958.75;105944;1257;72037;-45
2023/11/12 07:49:18;;;;;;;2.60;1.80;;;;;;;-147.86;100.00;48969.33;105964;1253;63900;-43
2023/11/12 07:51:48;;;;;;;5.90;2.00;;;;;;;-147.86;100.00;48938.36;105999;1252;71438;-46
2023/11/12 07:54:16;;;;;;;3.70;1.80;;;;;;;-147.86;100.00;48882.27;105946;1256;60325;-44
2023/11/12 07:56:44;;;;;;;3.40;1.70;;;;;;;-147.86;100.00;48869.73;105946;1257;59708;-45
2023/11/12 07:59:12;;;;;;;4.80;1.90;;;;;;;-147.86;100.00;48835.22;105984;1251;73042;-46
2023/11/12 08:01:41;;;;;;;1.50;1.40;;;;;;;-147.86;100.00;48810.13;106016;1251;63984;-45
2023/11/12 08:04:09;;;;;;;2.60;1.80;;;;;;;-147.86;100.00;48779.54;105969;1251;72623;-43
2023/11/12 08:06:37;;;;;;;2.20;1.50;;;;;;;-147.86;100.00;48744.64;105993;1257;59863;-46
2023/11/12 08:09:06;;;;;;;3.50;1.40;;;;;;;-147.86;100.00;48721.11;105913;1253;59624;-45
2023/11/12 08:11:39;;;;;;;2.30;1.40;;;;;;;-147.86;100.00;48697.20;105937;1251;72927;-45
2023/11/12 08:14:09;;;;;;;2.00;1.80;;;;;;;-147.86;100.00;48708.17;105936;1251;65180;-46
2023/11/12 08:16:36;;;;;;;2.30;1.60;;;;;;;-147.86;100.00;48701.50;105930;1256;72693;-45
2023/11/12 08:19:06;;;;;;;1.80;1.70;;;;;;;-147.86;100.00;48678.76;105949;1251;59923;-43
2023/11/12 08:21:33;;;;;;;5.30;1.40;;;;;;;-147.86;100.00;48655.24;106035;1251;59608;-46
2023/11/12 08:24:02;;;;;;;1.90;1.40;;;;;;;-147.86;100.00;48656.80;105885;1251;71725;-44
2023/11/12 08:26:32;;;;;;;2.00;1.80;;;;;;;-147.86;100.00;48660.34;106001;1257;66206;-45
2023/11/12 08:29:00;;;;;;;2.80;1.90;;;;;;;-147.86;100.00;48683.47;105993;1251;72641;-45
2023/11/12 08:31:28;;;;;;;2.50;1.90;;;;;;;-147.86;100.00;48695.23;105957;1254;60408;-44
2023/11/12 08:33:56;;;;;;;2.90;1.60;;;;;;;-147.86;100.00;48699.94;105899;1258;59621;-43
2023/11/12 08:36:23;;;;;;;4.40;1.70;;;;;;;-147.86;100.00;48717.19;105964;1251;71773;-44
2023/11/12 08:38:51;;;;;;;1.90;1.80;;;;;;;-147.86;100.00;48736.79;105911;1257;63925;-44
2023/11/12 08:41:19;;;;;;;6.60;2.40;;;;;;;-147.86;100.00;48780.32;105973;1251;71721;-47
2023/11/12 08:43:47;;;;;;;3.50;2.20;;;;;;;-147.86;100.00;48801.11;105923;1257;59730;-44
2023/11/12 08:46:15;;;;;;;3.10;2.00;;;;;;;-147.86;100.00;48825.41;105923;1254;59758;-44
2023/11/12 08:48:43;;;;;;;3.90;2.50;;;;;;;-147.86;100.00;48838.75;105959;1251;70778;-47
2023/11/12 08:51:11;;;;;;;5.30;2.30;;;;;;;-147.86;100.00;48875.22;105953;1252;66412;-45
2023/11/12 08:53:39;;;;;;;3.20;2.80;;;;;;;-147.86;100.00;48907.77;105961;1257;72681;-45
2023/11/12 08:56:07;;;;;;;2.40;2.20;;;;;;;-147.86;100.00;48975.21;105972;1253;59850;-44
2023/11/12 08:58:35;;;;;;;2.50;2.20;;;;;;;-147.86;100.00;49032.86;105922;1256;59977;-45
2023/11/12 09:01:04;;;;;;;6.10;2.30;;;;;;;-147.86;100.00;49114.04;105942;1251;71804;-46
2023/11/12 09:03:32;;;;;;;3.80;2.40;;;;;;;-147.86;100.00;49204.63;105939;1256;63889;-43
2023/11/12 09:06:00;;;;;;;2.70;2.20;;;;;;;-147.86;100.00;49274.83;105876;1254;71442;-44
2023/11/12 09:08:27;;;;;;;3.90;2.60;;;;;;;-147.86;100.00;49339.15;105915;1251;60390;-46
2023/11/12 09:10:55;;;;;;;5.10;2.70;;;;;;;-147.86;100.00;49414.05;105885;1251;59727;-44
2023/11/12 09:13:23;;;;;;;9.20;2.90;;;;;;;-147.86;100.00;49483.47;106016;1251;71837;-46
2023/11/12 09:15:51;;;;;;;3.80;2.40;;;;;;;-147.86;100.00;49553.68;105881;1251;65263;-45
2023/11/12 09:18:20;;;;;;;6.10;2.40;;;;;;;-147.86;100.00;49623.89;105854;1251;72613;-45
2023/11/12 09:20:48;;;;;;;7.50;2.50;;;;;;;-147.86;100.00;49703.50;105919;1252;60399;-44
2023/11/12 09:23:16;;;;;;;3.80;2.50;;;;;;;-147.86;100.00;49779.60;105911;1257;59619;-45
2023/11/12 09:25:45;;;;;;;5.30;2.50;;;;;;;-147.86;100.00;49888.24;105933;1257;72986;-45
2023/11/12 09:28:12;;;;;;;4.90;1.90;;;;;;;-147.86;100.00;49945.90;106014;1251;63579;-43
2023/11/12 09:30:40;;;;;;;4.90;2.00;;;;;;;-147.86;100.00;50031.80;105959;1251;71858;-45
2023/11/12 09:33:26;;;;;;;4.30;1.80;;;;;;;-147.86;100.00;50126.73;105887;1254;60440;-45
2023/11/12 09:35:54;;;;;;;1.90;1.70;;;;;;;-147.86;100.00;50206.76;105947;1251;60003;-43
2023/11/12 09:38:22;;;;;;;4.60;2.10;;;;;;;-147.86;100.00;50274.62;105912;1257;73002;-45
2023/11/12 09:40:50;;;;;;;3.30;2.20;;;;;;;-147.86;100.00;50336.21;105965;1251;64074;-44
2023/11/12 09:43:17;;;;;;;1.90;1.70;;;;;;;-147.86;100.00;50389.56;105940;1255;70958;-47
2023/11/12 09:45:45;;;;;;;2.20;2.10;;;;;;;-147.86;100.00;50441.73;105903;1251;60664;-47
2023/11/12 09:48:21;;;;;;;3.70;1.70;;;;;;;-147.86;100.00;50509.99;105715;1251;59945;-47
2023/11/12 09:50:49;;;;;;;2.10;1.90;;;;;;;-147.86;100.00;50539.02;105774;1251;70850;-46
2023/11/12 09:53:17;;;;;;;2.30;1.60;;;;;;;-147.86;100.00;50593.55;105967;1251;65211;-45
2023/11/12 09:55:45;;;;;;;2.30;1.70;;;;;;;-147.86;100.00;50615.92;105921;1255;71368;-47
2023/11/12 09:58:13;;;;;;;1.50;1.30;;;;;;;-147.86;100.00;50649.66;105934;1251;60646;-47
2023/11/12 10:00:43;;;;;;;1.40;1.30;;;;;;;-147.86;100.00;50655.54;105900;1251;60339;-47
2023/11/12 10:03:11;;;;;;;1.20;1.10;;;;;;;-147.86;100.00;50678.69;105990;1253;72551;-47
2023/11/12 10:05:39;;;;;;;1.30;1.20;;;;;;;-147.86;100.00;50707.72;105943;1255;63995;-46
2023/11/12 10:08:07;;;;;;;1.30;1.30;;;;;;;-147.86;100.00;50729.69;105750;1254;72112;-45
2023/11/12 10:10:35;;;;;;;1.10;1.00;;;;;;;-147.86;100.00;50753.62;105968;1251;61343;-46
2023/11/12 10:13:04;;;;;;;2.30;1.10;;;;;;;-147.86;100.00;50762.25;106024;1251;60452;-46
2023/11/12 10:47:35;;;;;;;2.00;1.90;;;;;;;-147.86;100.00;50513.59;102834;1290;600247;-48
2023/11/12 10:50:04;;;;;;;1.50;1.50;;;;;;;-147.86;100.00;50842.68;105131;1270;61670;-45
2023/11/12 10:52:33;;;;;;;1.60;1.50;;;;;;;-147.86;100.00;50841.89;104945;1264;59251;-47
2023/11/12 10:55:00;;;;;;;3.80;1.50;;;;;;;-147.86;100.00;50817.57;104694;1264;71060;-46
2023/11/12 10:57:30;;;;;;;1.80;1.70;;;;;;;-147.86;100.00;50823.46;104958;1264;63917;-50
2023/11/12 10:59:59;;;;;;;2.20;1.80;;;;;;;-147.86;100.00;50799.13;104933;1270;72671;-48
2023/11/12 11:02:32;;;;;;;1.70;1.60;;;;;;;-147.86;100.00;50769.71;104925;1267;62043;-51
2023/11/12 11:04:59;;;;;;;1.70;1.20;;;;;;;-147.86;100.00;50731.65;105202;1266;59322;-47
2023/11/12 11:07:27;;;;;;;1.50;1.50;;;;;;;-147.86;100.00;50739.10;105131;1264;70668;-46
2023/11/12 11:09:55;;;;;;;1.20;1.20;;;;;;;-147.86;100.00;50722.63;105252;1263;64097;-47
2023/11/12 11:12:24;;;;;;;3.40;1.70;;;;;;;-147.86;100.00;50705.37;105162;1267;72626;-45
2023/11/12 11:14:52;;;;;;;3.90;1.10;;;;;;;-147.86;100.00;50692.42;105227;1269;60377;-44
2023/11/12 11:17:38;;;;;;;0.80;0.80;;;;;;;-147.86;100.00;50653.97;105245;1264;59890;-45
2023/11/12 11:20:11;;;;;;;1.50;1.30;;;;;;;-147.86;100.00;50653.97;105212;1267;71532;-45
2023/11/12 11:22:41;;;;;;;1.40;1.40;;;;;;;-147.86;100.00;50628.47;105653;1257;63979;-47
2023/11/12 11:25:29;;;;;;;1.30;1.00;;;;;;;-147.86;100.00;50583.36;105669;1257;72990;-47
2023/11/12 11:28:25;;;;;;;1.00;0.90;;;;;;;-147.86;100.00;50565.30;105639;1261;60403;-47
2023/11/12 11:31:11;;;;;;;1.30;1.20;;;;;;;-147.86;100.00;50532.35;105690;1257;60311;-45
2023/11/12 11:33:47;;;;;;;1.20;1.20;;;;;;;-147.86;100.00;50504.50;105670;1260;75351;-42
2023/11/12 11:36:16;;;;;;;1.00;0.90;;;;;;;-147.86;100.00;50468.01;105646;1260;64617;-44
2023/11/12 11:39:06;;;;;;;0.90;0.90;;;;;;;-147.86;100.00;50435.85;105622;1260;71897;-45
2023/11/12 11:41:55;;;;;;;0.70;0.70;;;;;;;-147.86;100.00;50431.93;105627;1258;61224;-48
2023/11/12 11:44:40;;;;;;;0.80;0.80;;;;;;;-147.86;100.00;50428.40;105595;1257;60666;-47
2023/11/12 11:47:23;;;;;;;2.50;0.60;;;;;;;-147.86;100.00;50386.03;105582;1257;70807;-45
2023/11/12 11:49:57;;;;;;;0.90;0.90;;;;;;;-147.86;100.00;50351.90;105580;1257;65325;-47
2023/11/12 11:52:27;;;;;;;1.00;1.00;;;;;;;-147.86;100.00;50360.92;105529;1264;73289;-48
2023/11/12 11:55:04;;;;;;;1.30;0.70;;;;;;;-147.86;100.00;50352.69;105563;1258;62180;-46
2023/11/12 11:57:33;;;;;;;1.20;0.60;;;;;;;-147.86;100.00;50367.59;105565;1257;59958;-45
2023/11/12 12:00:03;;;;;;;0.80;0.80;;;;;;;-147.86;100.00;50380.93;105625;1258;71653;-48
2023/11/12 12:02:44;;;;;;;1.20;0.90;;;;;;;-147.86;100.00;50383.28;105535;1263;65394;-47
2023/11/12 12:05:15;;;;;;;0.60;0.60;;;;;;;-147.86;100.00;50395.45;105595;1258;71416;-48
2023/11/12 12:07:45;;;;;;;3.30;0.90;;;;;;;-147.86;100.00;50384.07;105499;1262;61618;-47
2023/11/12 12:10:26;;;;;;;1.00;0.90;;;;;;;-147.86;100.00;50386.02;105566;1257;59705;-47
2023/11/12 12:12:54;;;;;;;0.70;0.70;;;;;;;-147.86;100.00;50377.40;105550;1257;71736;-44
2023/11/12 12:15:23;;;;;;;0.80;0.80;;;;;;;-147.86;100.00;50381.71;105544;1257;64336;-47
2023/11/12 12:17:50;;;;;;;0.60;0.60;;;;;;;-147.86;100.00;50378.57;105517;1257;72704;-47
2023/11/12 12:20:18;;;;;;;1.50;0.40;;;;;;;-147.86;100.00;50359.35;105560;1262;61648;-46
2023/11/12 12:22:46;;;;;;;0.80;0.50;;;;;;;-147.86;100.00;50366.80;105503;1263;59286;-45
2023/11/12 12:25:16;;;;;;;0.80;0.80;;;;;;;-147.86;100.00;50346.02;105539;1257;72989;-43
2023/11/12 12:27:52;;;;;;;0.70;0.70;;;;;;;-147.86;100.00;50338.56;105547;1264;63997;-45
2023/11/12 12:30:20;;;;;;;0.70;0.70;;;;;;;-147.86;100.00;50346.41;105553;1264;71534;-44
2023/11/12 12:32:48;;;;;;;1.70;0.70;;;;;;;-147.86;100.00;50336.99;105583;1257;62229;-46
2023/11/12 12:35:23;;;;;;;1.10;0.70;;;;;;;-147.86;100.00;50306.00;105636;1262;59714;-51
2023/11/12 12:37:51;;;;;;;1.70;0.80;;;;;;;-147.86;100.00;50312.68;105545;1263;74992;-48
2023/11/12 12:40:27;;;;;;;1.00;0.60;;;;;;;-147.86;100.00;50298.15;105453;1257;64618;-48
2023/11/12 12:42:57;;;;;;;1.00;0.60;;;;;;;-147.86;100.00;50302.47;105466;1257;72519;-49